createdAt,value
2017-11-28T00:00:15.362Z,53.9
2017-11-28T00:00:31.158Z,54.6
2017-11-28T00:00:47.107Z,54.5
2017-11-28T00:01:03.253Z,53.7
2017-11-28T00:01:19.431Z,53.9
2017-11-28T00:01:35.613Z,54.1
2017-11-28T00:01:47.724Z,54.1
2017-11-28T00:02:04.724Z,54
2017-11-28T00:02:16.832Z,54.4
2017-11-28T00:02:33.747Z,54.2
2017-11-28T00:02:50.495Z,53.8
2017-11-28T00:03:07.678Z,54
2017-11-28T00:03:55.971Z,54.1
2017-11-28T00:04:12.104Z,54.2
2017-11-28T00:04:28.370Z,53.7
2017-11-28T00:04:44.463Z,53.8
2017-11-28T00:05:00.623Z,53.7
2017-11-28T00:05:16.688Z,54.5
2017-11-28T00:05:32.852Z,53.7
2017-11-28T00:05:49.033Z,54
2017-11-28T00:06:14.255Z,54.1
2017-11-28T00:06:31.040Z,54.3
2017-11-28T00:06:47.163Z,54.5
2017-11-28T00:07:03.308Z,53.9
2017-11-28T00:07:22.679Z,53.7
2017-11-28T00:07:38.781Z,53.5
2017-11-28T00:07:54.907Z,53.8
2017-11-28T00:08:15.426Z,53.9
2017-11-28T00:08:28.073Z,53.7
2017-11-28T00:08:43.012Z,54.5
2017-11-28T00:08:59.517Z,54.2
2017-11-28T00:09:11.673Z,54.1
2017-11-28T00:09:24.609Z,54.2
2017-11-28T00:09:37.600Z,54.1
2017-11-28T00:09:50.511Z,53.9
2017-11-28T00:10:15.469Z,54
2017-11-28T00:10:27.654Z,54.1
2017-11-28T00:10:38.969Z,53.9
2017-11-28T00:10:51.959Z,53.8
2017-11-28T00:11:04.886Z,53.5
2017-11-28T00:11:17.863Z,53.4
2017-11-28T00:11:30.812Z,53.3
2017-11-28T00:11:43.738Z,53.7
2017-11-28T00:11:56.693Z,53.2
2017-11-28T00:12:09.668Z,53.8
2017-11-28T00:12:22.629Z,53.7
2017-11-28T00:12:35.579Z,53.3
2017-11-28T00:12:52.656Z,53.7
2017-11-28T00:13:04.762Z,53.7
2017-11-28T00:13:21.626Z,53.9
2017-11-28T00:13:33.842Z,54.2
2017-11-28T00:13:50.766Z,54.2
2017-11-28T00:14:25.886Z,53.9
2017-11-28T00:14:38.334Z,53.5
2017-11-28T00:14:51.131Z,53.9
2017-11-28T00:15:05.234Z,54.3
2017-11-28T00:15:23.412Z,54.3
2017-11-28T00:15:40.598Z,54
2017-11-28T00:15:53.464Z,53.9
2017-11-28T00:16:05.599Z,53.9
2017-11-28T00:16:18.500Z,54.2
2017-11-28T00:16:31.531Z,54
2017-11-28T00:16:44.443Z,54.1
2017-11-28T00:17:03.020Z,54.2
2017-11-28T00:17:15.137Z,54.5
2017-11-28T00:17:32.084Z,54.3
2017-11-28T00:17:58.586Z,54.2
2017-11-28T00:18:15.638Z,54.3
2017-11-28T00:18:27.875Z,54.3
2017-11-28T00:18:52.802Z,54.4
2017-11-28T00:19:04.847Z,54.3
2017-11-28T00:19:17.907Z,54.5
2017-11-28T00:19:34.768Z,54.5
2017-11-28T00:19:51.200Z,54.3
2017-11-28T00:20:03.079Z,54.2
2017-11-28T00:20:20.084Z,54.2
2017-11-28T00:20:36.217Z,54.1
2017-11-28T00:20:48.338Z,54.1
2017-11-28T00:21:05.335Z,54.1
2017-11-28T00:21:21.454Z,54.2
2017-11-28T00:21:37.664Z,53.9
2017-11-28T00:21:53.749Z,53.9
2017-11-28T00:22:05.980Z,53.8
2017-11-28T00:22:22.908Z,54
2017-11-28T00:22:39.032Z,54.2
2017-11-28T00:22:51.207Z,54.1
2017-11-28T00:23:09.195Z,54.2
2017-11-28T00:23:22.918Z,54.2
2017-11-28T00:23:34.864Z,54
2017-11-28T00:23:47.872Z,54.1
2017-11-28T00:24:04.775Z,54
2017-11-28T00:24:16.972Z,54
2017-11-28T00:24:33.905Z,53.9
2017-11-28T00:24:50.131Z,54.2
2017-11-28T00:25:06.208Z,54.3
2017-11-28T00:25:18.313Z,54.4
2017-11-28T00:25:31.272Z,54.3
2017-11-28T00:25:44.231Z,54.6
2017-11-28T00:25:57.191Z,54.4
2017-11-28T00:26:10.833Z,54.5
2017-11-28T00:26:30.420Z,54.3
2017-11-28T00:26:43.998Z,54.5
2017-11-28T00:26:57.094Z,54.3
2017-11-28T00:27:09.919Z,54.2
2017-11-28T00:27:26.880Z,54.4
2017-11-28T00:28:17.444Z,54.4
2017-11-28T00:28:28.936Z,54.3
2017-11-28T00:28:45.924Z,54
2017-11-28T00:28:58.109Z,54
2017-11-28T00:29:11.232Z,53.9
2017-11-28T00:29:23.960Z,54
2017-11-28T00:29:36.930Z,53.9
2017-11-28T00:29:53.878Z,54
2017-11-28T00:30:12.591Z,54.3
2017-11-28T00:30:25.377Z,54.2
2017-11-28T00:30:39.318Z,54.2
2017-11-28T00:30:51.229Z,54.5
2017-11-28T00:31:04.310Z,54.5
2017-11-28T00:31:17.194Z,54.2
2017-11-28T00:31:30.132Z,54
2017-11-28T00:31:47.069Z,54.3
2017-11-28T00:31:59.267Z,54.1
2017-11-28T00:32:12.234Z,54.4
2017-11-28T00:32:25.120Z,54.3
2017-11-28T00:36:20.245Z,54.7
2017-11-28T00:36:36.021Z,54.4
2017-11-28T00:36:48.154Z,54.2
2017-11-28T00:36:59.503Z,54.4
2017-11-28T00:37:12.491Z,54.5
2017-11-28T00:37:25.400Z,54.4
2017-11-28T00:37:44.912Z,54.5
2017-11-28T00:38:02.276Z,54.3
2017-11-28T00:38:13.892Z,54.4
2017-11-28T00:38:31.344Z,54.4
2017-11-28T00:38:46.986Z,54.7
2017-11-28T00:38:59.198Z,54.5
2017-11-28T00:39:12.112Z,54.6
2017-11-28T00:39:25.114Z,54.8
2017-11-28T00:39:38.011Z,54.2
2017-11-28T00:39:55.049Z,54.2
2017-11-28T00:40:07.116Z,54.5
2017-11-28T00:40:20.087Z,54.5
2017-11-28T00:40:36.994Z,54.4
2017-11-28T00:40:54.219Z,54.5
2017-11-28T00:41:10.933Z,54.4
2017-11-28T00:41:27.089Z,54.3
2017-11-28T00:41:39.700Z,54.5
2017-11-28T00:41:52.177Z,54.2
2017-11-28T00:42:09.151Z,54.2
2017-11-28T00:42:25.338Z,54.5
2017-11-28T00:42:37.477Z,54.7
2017-11-28T00:42:54.393Z,54.7
2017-11-28T00:43:10.615Z,54.9
2017-11-28T00:43:22.733Z,54.8
2017-11-28T00:43:35.670Z,54.9
2017-11-28T00:43:52.606Z,54.3
2017-11-28T00:44:04.797Z,54.7
2017-11-28T00:44:17.778Z,54.8
2017-11-28T00:44:30.680Z,54.8
2017-11-28T00:44:43.595Z,54.3
2017-11-28T00:44:56.640Z,54.4
2017-11-28T00:45:15.594Z,54.1
2017-11-28T00:45:31.382Z,54.8
2017-11-28T00:45:47.467Z,54.5
2017-11-28T00:46:03.648Z,54.6
2017-11-28T00:46:15.755Z,54.7
2017-11-28T00:46:40.819Z,54.5
2017-11-28T00:46:53.108Z,54.8
2017-11-28T00:47:09.942Z,54.7
2017-11-28T00:47:25.999Z,54.8
2017-11-28T00:47:38.124Z,54.2
2017-11-28T00:47:51.132Z,54.3
2017-11-28T00:48:08.029Z,54.4
2017-11-28T00:48:20.212Z,54.3
2017-11-28T00:48:37.122Z,54.7
2017-11-28T00:48:49.253Z,54.3
2017-11-28T00:49:06.832Z,54.7
2017-11-28T00:49:19.005Z,54.6
2017-11-28T00:49:32.324Z,54.5
2017-11-28T00:49:48.306Z,54.6
2017-11-28T00:50:00.476Z,54.5
2017-11-28T00:50:13.402Z,54.5
2017-11-28T00:50:26.523Z,54.3
2017-11-28T00:50:39.452Z,54.4
2017-11-28T00:51:20.462Z,54.6
2017-11-28T00:51:36.576Z,54.4
2017-11-28T00:51:59.640Z,54.5
2017-11-28T00:52:15.249Z,54.6
2017-11-28T00:52:31.387Z,54.8
2017-11-28T00:52:43.597Z,54.9
2017-11-28T00:52:54.948Z,54.7
2017-11-28T00:53:22.935Z,54.8
2017-11-28T00:53:45.222Z,54.8
2017-11-28T00:54:01.805Z,54.5
2017-11-28T00:54:26.497Z,54.8
2017-11-28T00:54:39.696Z,54.6
2017-11-28T00:54:53.625Z,54.6
2017-11-28T00:55:05.606Z,54.7
2017-11-28T00:55:18.586Z,54.7
2017-11-28T00:55:35.507Z,54.4
2017-11-28T00:56:00.154Z,54.8
2017-11-28T00:56:11.835Z,54.3
2017-11-28T00:56:24.769Z,54.2
2017-11-28T00:56:41.786Z,54.6
2017-11-28T00:56:54.028Z,54.5
2017-11-28T00:57:10.944Z,54.9
2017-11-28T00:57:23.109Z,54.8
2017-11-28T00:57:40.052Z,55.2
2017-11-28T00:57:52.214Z,55.3
2017-11-28T00:58:05.141Z,55.4
2017-11-28T00:58:18.068Z,55.9
2017-11-28T00:58:34.993Z,56.1
2017-11-28T00:58:51.202Z,56
2017-11-28T00:59:03.617Z,56.1
2017-11-28T00:59:16.341Z,55.4
2017-11-28T00:59:29.246Z,55.5
2017-11-28T00:59:42.167Z,55.4
2017-11-28T00:59:55.142Z,55.4
2017-11-28T01:00:12.093Z,55.5
2017-11-28T01:00:28.228Z,55.6
2017-11-28T01:00:40.461Z,55.5
2017-11-28T01:00:53.406Z,55.2
2017-11-28T01:01:06.263Z,55.7
2017-11-28T01:01:19.395Z,55.8
2017-11-28T01:01:32.320Z,55.8
2017-11-28T01:01:45.177Z,55.8
2017-11-28T01:01:59.673Z,55.4
2017-11-28T01:02:13.280Z,55.7
2017-11-28T01:02:29.806Z,55.6
2017-11-28T01:03:09.842Z,55.6
2017-11-28T01:03:33.994Z,55.7
2017-11-28T01:03:46.126Z,55.5
2017-11-28T01:03:59.138Z,55.6
2017-11-28T01:04:16.038Z,55.2
2017-11-28T01:04:28.214Z,55.4
2017-11-28T01:04:41.197Z,55.5
2017-11-28T01:04:58.126Z,55.4
2017-11-28T01:05:10.301Z,55.7
2017-11-28T01:05:25.829Z,55.6
2017-11-28T01:05:37.813Z,56.2
2017-11-28T01:05:50.826Z,55.5
2017-11-28T01:07:04.477Z,55.6
2017-11-28T01:07:15.812Z,55.6
2017-11-28T01:07:30.416Z,55.8
2017-11-28T01:07:50.153Z,55.8
2017-11-28T01:08:08.019Z,55.7
2017-11-28T01:08:24.457Z,55.1
2017-11-28T01:08:36.635Z,55
2017-11-28T01:08:49.567Z,55
2017-11-28T01:09:02.489Z,55
2017-11-28T01:09:15.428Z,55
2017-11-28T01:09:28.453Z,55
2017-11-28T01:09:41.339Z,55.1
2017-11-28T01:09:56.683Z,55
2017-11-28T01:10:08.834Z,54.7
2017-11-28T01:10:25.798Z,54.9
2017-11-28T01:10:41.958Z,54.8
2017-11-28T01:13:37.706Z,54.7
2017-11-28T01:13:54.381Z,54.6
2017-11-28T01:14:10.577Z,54.8
2017-11-28T01:14:26.730Z,54.6
2017-11-28T01:14:42.890Z,54.7
2017-11-28T01:15:16.491Z,54.2
2017-11-28T01:15:32.773Z,54.1
2017-11-28T01:15:49.000Z,54.8
2017-11-28T01:16:05.091Z,54.5
2017-11-28T01:16:21.244Z,54.5
2017-11-28T01:17:00.924Z,54.8
2017-11-28T01:17:14.514Z,55.1
2017-11-28T01:17:29.398Z,54.5
2017-11-28T01:17:49.119Z,54.6
2017-11-28T01:18:08.213Z,54.5
2017-11-28T01:18:33.869Z,54.5
2017-11-28T01:18:51.273Z,54.6
2017-11-28T01:19:03.411Z,54.6
2017-11-28T01:19:16.376Z,54.7
2017-11-28T01:19:29.381Z,54.7
2017-11-28T01:19:42.317Z,54.6
2017-11-28T01:19:59.383Z,54.5
2017-11-28T01:20:11.434Z,54.7
2017-11-28T01:20:24.354Z,54.6
2017-11-28T01:20:41.326Z,54.5
2017-11-28T01:20:53.529Z,54.7
2017-11-28T01:21:06.426Z,54.6
2017-11-28T01:21:23.361Z,54.9
2017-11-28T01:21:35.523Z,54.8
2017-11-28T01:21:48.499Z,55.1
2017-11-28T01:22:01.429Z,54.9
2017-11-28T01:22:14.384Z,55
2017-11-28T01:22:27.337Z,55.4
2017-11-28T01:22:44.289Z,55.4
2017-11-28T01:22:56.472Z,55.3
2017-11-28T01:23:13.445Z,55.1
2017-11-28T01:23:25.551Z,55
2017-11-28T01:23:38.506Z,54.5
2017-11-28T01:23:51.462Z,54.4
2017-11-28T01:24:08.473Z,54.7
2017-11-28T01:24:20.647Z,54.6
2017-11-28T01:24:33.550Z,54.6
2017-11-28T01:24:46.721Z,54.5
2017-11-28T01:24:59.411Z,54.9
2017-11-28T01:25:16.342Z,54.8
2017-11-28T01:25:28.540Z,55
2017-11-28T01:25:45.754Z,55
2017-11-28T01:26:01.684Z,54.9
2017-11-28T01:26:17.779Z,55.1
2017-11-28T01:26:29.940Z,55.1
2017-11-28T01:26:42.900Z,55
2017-11-28T01:26:55.872Z,55
2017-11-28T01:27:08.800Z,54.7
2017-11-28T01:27:25.733Z,54.4
2017-11-28T01:27:41.887Z,55
2017-11-28T01:28:06.569Z,54.5
2017-11-28T01:28:22.181Z,55.2
2017-11-28T01:28:38.401Z,54.5
2017-11-28T01:29:17.833Z,54.5
2017-11-28T01:29:30.808Z,54.5
2017-11-28T01:29:45.488Z,54.6
2017-11-28T01:30:01.039Z,54.6
2017-11-28T01:30:20.528Z,55
2017-11-28T01:30:37.530Z,55.4
2017-11-28T01:31:22.947Z,55.7
2017-11-28T01:31:39.102Z,55.9
2017-11-28T01:31:55.252Z,55.7
2017-11-28T01:32:28.374Z,55.6
2017-11-28T01:32:42.146Z,55.8
2017-11-28T01:32:58.068Z,55.2
2017-11-28T01:33:10.230Z,55.5
2017-11-28T01:33:23.202Z,55.5
2017-11-28T01:33:36.184Z,55.2
2017-11-28T01:33:50.764Z,55.3
2017-11-28T01:34:08.191Z,55.8
2017-11-28T01:34:19.795Z,55.7
2017-11-28T01:34:36.782Z,55.8
2017-11-28T01:34:48.892Z,56.1
2017-11-28T01:35:01.870Z,55.9
2017-11-28T01:35:14.862Z,55.9
2017-11-28T01:35:27.758Z,55.8
2017-11-28T01:35:40.726Z,55.8
2017-11-28T01:35:53.637Z,55.5
2017-11-28T01:36:10.636Z,55.7
2017-11-28T01:36:26.741Z,55.7
2017-11-28T01:36:38.953Z,55.6
2017-11-28T01:36:52.240Z,55.4
2017-11-28T01:37:04.865Z,55.6
2017-11-28T01:37:17.811Z,55.7
2017-11-28T01:37:30.714Z,56.1
2017-11-28T01:37:43.725Z,55.8
2017-11-28T01:38:00.639Z,56.1
2017-11-28T01:38:16.865Z,56.1
2017-11-28T01:38:32.982Z,55.3
2017-11-28T01:38:49.181Z,55.6
2017-11-28T01:39:01.269Z,55.6
2017-11-28T01:39:14.264Z,55.7
2017-11-28T01:39:27.167Z,55.5
2017-11-28T01:39:44.212Z,55.6
2017-11-28T01:40:10.198Z,55.6
2017-11-28T01:40:23.670Z,55.6
2017-11-28T01:40:40.704Z,55.5
2017-11-28T01:40:52.751Z,55.5
2017-11-28T01:41:05.724Z,55.5
2017-11-28T01:41:18.731Z,55.5
2017-11-28T01:41:35.629Z,55.5
2017-11-28T01:41:47.782Z,55.8
2017-11-28T01:42:00.816Z,55.6
2017-11-28T01:42:13.724Z,55.8
2017-11-28T01:42:26.680Z,55.8
2017-11-28T01:42:39.606Z,55.3
2017-11-28T01:42:52.533Z,55.8
2017-11-28T01:43:05.511Z,55.1
2017-11-28T01:43:18.421Z,55.3
2017-11-28T01:43:31.470Z,55.2
2017-11-28T01:43:44.425Z,55.4
2017-11-28T01:43:57.304Z,55.7
2017-11-28T01:44:14.224Z,55.5
2017-11-28T01:44:26.432Z,55.7
2017-11-28T01:44:43.381Z,55.7
2017-11-28T01:52:31.547Z,55
2017-11-28T01:52:44.450Z,55.4
2017-11-28T01:53:01.445Z,55.4
2017-11-28T01:53:13.555Z,55.5
2017-11-28T01:53:26.583Z,55.3
2017-11-28T01:53:39.597Z,55.1
2017-11-28T01:53:54.472Z,55.4
2017-11-28T01:54:07.927Z,54.9
2017-11-28T01:54:19.977Z,55.3
2017-11-28T01:54:34.860Z,55.4
2017-11-28T01:54:47.487Z,55.3
2017-11-28T01:55:01.298Z,55
2017-11-28T01:55:43.403Z,55.8
2017-11-28T01:56:10.051Z,55.5
2017-11-28T01:56:22.466Z,55.7
2017-11-28T01:56:35.450Z,56
2017-11-28T01:56:52.318Z,55.5
2017-11-28T01:57:08.492Z,55.5
2017-11-28T01:57:24.651Z,55.8
2017-11-28T01:58:05.770Z,55.9
2017-11-28T01:58:23.576Z,55.8
2017-11-28T01:58:40.273Z,56.2
2017-11-28T01:59:33.460Z,56.4
2017-11-28T01:59:45.441Z,56.4
2017-11-28T02:00:05.271Z,56.1
2017-11-28T02:00:20.275Z,56.2
2017-11-28T02:00:36.238Z,56
2017-11-28T02:00:48.507Z,55.9
2017-11-28T02:01:01.456Z,55.8
2017-11-28T02:01:44.081Z,55.9
2017-11-28T02:02:00.244Z,56
2017-11-28T02:02:16.408Z,55.6
2017-11-28T02:02:32.597Z,55.8
2017-11-28T02:02:44.739Z,55.9
2017-11-28T02:03:01.748Z,55.8
2017-11-28T02:03:17.858Z,55.9
2017-11-28T02:03:33.986Z,55.8
2017-11-28T02:03:52.525Z,55.6
2017-11-28T02:04:05.451Z,55.8
2017-11-28T02:04:16.793Z,56.2
2017-11-28T02:04:28.288Z,55.8
2017-11-28T02:04:45.106Z,55.5
2017-11-28T02:05:11.822Z,55.7
2017-11-28T02:05:28.732Z,55.6
2017-11-28T02:05:40.858Z,55.6
2017-11-28T02:05:56.276Z,55.5
2017-11-28T02:06:08.313Z,55.6
2017-11-28T02:06:21.270Z,55.2
2017-11-28T02:06:38.240Z,55.7
2017-11-28T02:06:50.341Z,55.5
2017-11-28T02:07:03.282Z,55.5
2017-11-28T02:07:16.270Z,55.8
2017-11-28T02:07:29.218Z,55.6
2017-11-28T02:08:08.701Z,55.6
2017-11-28T02:08:24.921Z,55.8
2017-11-28T02:08:41.062Z,55.5
2017-11-28T02:09:56.121Z,55.6
2017-11-28T02:10:08.637Z,55.8
2017-11-28T02:10:20.034Z,55.5
2017-11-28T02:10:37.002Z,55.4
2017-11-28T02:10:53.127Z,55.4
2017-11-28T02:11:05.308Z,55.2
2017-11-28T02:11:18.271Z,55.2
2017-11-28T02:11:31.210Z,55.3
2017-11-28T02:11:44.179Z,55.2
2017-11-28T02:11:57.086Z,55.4
2017-11-28T02:12:10.109Z,55.4
2017-11-28T02:12:29.029Z,55.3
2017-11-28T02:13:00.817Z,55
2017-11-28T02:13:12.953Z,55.3
2017-11-28T02:13:29.896Z,54.9
2017-11-28T02:13:42.069Z,54.9
2017-11-28T02:13:59.013Z,55.5
2017-11-28T02:14:15.150Z,55.8
2017-11-28T02:14:31.752Z,55.2
2017-11-28T02:14:43.422Z,55
2017-11-28T02:15:00.482Z,55.8
2017-11-28T02:15:16.920Z,55.4
2017-11-28T02:15:41.228Z,55.3
2017-11-28T02:15:52.907Z,55.4
2017-11-28T02:16:11.397Z,55.2
2017-11-28T02:16:23.584Z,55.5
2017-11-28T02:16:40.571Z,55.1
2017-11-28T02:16:56.688Z,55.1
2017-11-28T02:17:08.888Z,55.2
2017-11-28T02:17:21.823Z,55.2
2017-11-28T02:17:39.427Z,55
2017-11-28T02:17:54.941Z,55.2
2017-11-28T02:18:13.509Z,55.2
2017-11-28T02:18:26.377Z,55.2
2017-11-28T02:18:39.361Z,55
2017-11-28T02:18:56.342Z,55.4
2017-11-28T02:19:12.412Z,55.3
2017-11-28T02:19:24.573Z,55.3
2017-11-28T02:19:35.971Z,55.3
2017-11-28T02:19:48.880Z,55.8
2017-11-28T02:20:01.862Z,55.8
2017-11-28T02:20:14.866Z,55.3
2017-11-28T02:20:27.769Z,55.2
2017-11-28T02:20:40.717Z,55.1
2017-11-28T02:20:57.799Z,55.8
2017-11-28T02:21:09.808Z,55.8
2017-11-28T02:21:22.746Z,55.4
2017-11-28T02:21:35.704Z,55.8
2017-11-28T02:21:48.689Z,55.1
2017-11-28T02:22:01.568Z,55.4
2017-11-28T02:22:12.961Z,55.3
2017-11-28T02:22:24.329Z,54.9
2017-11-28T02:22:37.305Z,55
2017-11-28T02:22:54.752Z,55
2017-11-28T02:23:06.450Z,54.9
2017-11-28T02:23:23.339Z,55.1
2017-11-28T02:23:35.480Z,55
2017-11-28T02:23:48.408Z,55
2017-11-28T02:24:01.365Z,54.9
2017-11-28T02:24:14.337Z,55.2
2017-11-28T02:24:27.311Z,55.1
2017-11-28T02:24:40.254Z,55.3
2017-11-28T02:25:31.673Z,55.4
2017-11-28T02:25:48.566Z,54.9
2017-11-28T02:26:00.708Z,55.3
2017-11-28T02:26:13.663Z,55.3
2017-11-28T02:26:28.268Z,55.2
2017-11-28T02:26:41.191Z,55.2
2017-11-28T02:26:54.160Z,55.3
2017-11-28T02:27:07.164Z,54.9
2017-11-28T02:27:20.034Z,55.4
2017-11-28T02:27:57.156Z,55
2017-11-28T02:28:14.103Z,55.2
2017-11-28T02:28:47.312Z,55
2017-11-28T02:29:04.011Z,55.1
2017-11-28T02:29:16.158Z,55.4
2017-11-28T02:29:29.139Z,55.3
2017-11-28T02:29:42.070Z,55.4
2017-11-28T02:29:55.028Z,54.9
2017-11-28T02:30:08.036Z,55.2
2017-11-28T02:30:27.966Z,55.2
2017-11-28T02:30:44.355Z,55.2
2017-11-28T02:31:08.964Z,55.2
2017-11-28T02:31:24.572Z,55.2
2017-11-28T02:31:40.796Z,55
2017-11-28T02:31:56.884Z,55.4
2017-11-28T02:32:13.120Z,55.3
2017-11-28T02:32:29.209Z,55.5
2017-11-28T02:32:43.494Z,55.4
2017-11-28T02:32:55.935Z,55
2017-11-28T02:33:21.833Z,54.8
2017-11-28T02:33:38.628Z,54.8
2017-11-28T02:33:50.744Z,55.3
2017-11-28T02:34:02.141Z,54.9
2017-11-28T02:34:15.073Z,54.6
2017-11-28T02:34:28.025Z,55.2
2017-11-28T02:34:40.986Z,55.4
2017-11-28T02:34:53.961Z,55.1
2017-11-28T02:35:08.880Z,55.4
2017-11-28T02:35:21.524Z,54.9
2017-11-28T02:35:52.917Z,55.3
2017-11-28T02:36:08.998Z,55
2017-11-28T02:36:21.104Z,54.8
2017-11-28T02:36:34.026Z,54.8
2017-11-28T02:36:45.403Z,54.8
2017-11-28T02:36:58.335Z,55.2
2017-11-28T02:37:11.292Z,55
2017-11-28T02:37:24.242Z,55.4
2017-11-28T02:37:37.187Z,55.2
2017-11-28T02:37:50.122Z,54.9
2017-11-28T02:38:03.122Z,55
2017-11-28T02:38:16.068Z,55.2
2017-11-28T02:38:29.058Z,55
2017-11-28T02:38:41.965Z,54.9
2017-11-28T02:38:54.939Z,55.1
2017-11-28T02:39:07.864Z,55.4
2017-11-28T02:39:20.842Z,55.3
2017-11-28T02:39:37.781Z,55
2017-11-28T02:39:49.866Z,55.2
2017-11-28T02:40:05.270Z,55.2
2017-11-28T02:40:17.480Z,55
2017-11-28T02:40:30.368Z,55
2017-11-28T02:40:41.766Z,55.1
2017-11-28T02:40:54.718Z,55.4
2017-11-28T02:41:07.659Z,55.3
2017-11-28T02:41:20.599Z,55.4
2017-11-28T02:41:33.610Z,55.3
2017-11-28T02:41:50.517Z,55.3
2017-11-28T02:42:12.618Z,55.1
2017-11-28T02:42:29.227Z,54.5
2017-11-28T02:42:41.604Z,55.1
2017-11-28T02:42:58.328Z,55.3
2017-11-28T02:43:14.519Z,55
2017-11-28T02:43:26.650Z,55
2017-11-28T02:43:43.595Z,54.9
2017-11-28T02:43:58.342Z,55.2
2017-11-28T02:44:10.302Z,55.1
2017-11-28T02:44:42.838Z,54.9
2017-11-28T02:44:59.477Z,55.2
2017-11-28T02:45:15.585Z,55
2017-11-28T02:45:31.700Z,54.8
2017-11-28T02:45:47.929Z,55
2017-11-28T02:46:04.006Z,55
2017-11-28T02:46:20.267Z,55.2
2017-11-28T02:46:38.318Z,55.4
2017-11-28T02:46:50.104Z,55.2
2017-11-28T02:47:03.042Z,54.8
2017-11-28T02:47:20.017Z,55.1
2017-11-28T02:47:47.284Z,55.2
2017-11-28T02:48:03.509Z,54.8
2017-11-28T02:48:15.796Z,55.2
2017-11-28T02:48:28.657Z,55
2017-11-28T02:48:41.581Z,55.1
2017-11-28T02:49:07.135Z,54.9
2017-11-28T02:49:22.749Z,55.1
2017-11-28T02:49:38.962Z,55
2017-11-28T02:49:50.988Z,55
2017-11-28T02:50:03.972Z,55.4
2017-11-28T02:50:16.966Z,55.2
2017-11-28T02:50:33.898Z,55.4
2017-11-28T02:50:46.084Z,55.3
2017-11-28T02:51:00.283Z,55
2017-11-28T02:51:14.416Z,55.4
2017-11-28T02:51:26.537Z,55.1
2017-11-28T02:51:39.455Z,55.7
2017-11-28T02:51:52.403Z,55.6
2017-11-28T02:52:07.326Z,56
2017-11-28T02:52:19.874Z,55.8
2017-11-28T02:52:37.053Z,55.8
2017-11-28T02:53:05.989Z,55.3
2017-11-28T02:53:25.133Z,55.4
2017-11-28T02:53:41.317Z,55.8
2017-11-28T02:53:57.479Z,56
2017-11-28T02:54:13.582Z,55.8
2017-11-28T02:54:29.721Z,55.8
2017-11-28T02:54:45.926Z,56
2017-11-28T02:55:02.039Z,55.8
2017-11-28T02:55:18.234Z,55.8
2017-11-28T02:55:34.327Z,55.9
2017-11-28T02:55:50.489Z,55.9
2017-11-28T02:56:06.723Z,55.9
2017-11-28T02:56:24.862Z,56
2017-11-28T02:56:40.608Z,55.9
2017-11-28T02:56:56.689Z,56
2017-11-28T02:57:12.950Z,55.6
2017-11-28T02:57:31.658Z,55.6
2017-11-28T02:57:45.131Z,55.4
2017-11-28T02:57:57.489Z,55.5
2017-11-28T02:58:14.998Z,55.3
2017-11-28T02:58:32.044Z,55.6
2017-11-28T02:58:56.195Z,55.7
2017-11-28T02:59:12.424Z,55.5
2017-11-28T02:59:30.553Z,55.3
2017-11-28T02:59:47.873Z,55.1
2017-11-28T03:00:00.352Z,55
2017-11-28T03:00:12.959Z,55.4
2017-11-28T03:00:29.922Z,54.9
2017-11-28T03:00:42.045Z,54.9
2017-11-28T03:00:55.018Z,55
2017-11-28T03:01:11.964Z,55
2017-11-28T03:01:24.145Z,55
2017-11-28T03:01:37.065Z,54.9
2017-11-28T03:02:03.047Z,55.1
2017-11-28T03:02:35.288Z,55.4
2017-11-28T03:02:51.949Z,55.3
2017-11-28T03:03:08.047Z,55.3
2017-11-28T03:03:24.306Z,55.8
2017-11-28T03:03:40.396Z,55.3
2017-11-28T03:03:56.562Z,55.1
2017-11-28T03:04:12.811Z,55.4
2017-11-28T03:04:28.805Z,55
2017-11-28T03:04:45.485Z,55.2
2017-11-28T03:05:01.150Z,55
2017-11-28T03:05:17.383Z,55.1
2017-11-28T03:05:33.549Z,55.2
2017-11-28T03:05:49.632Z,55.2
2017-11-28T03:06:05.772Z,54.5
2017-11-28T03:06:21.910Z,55
2017-11-28T03:06:38.157Z,55
2017-11-28T03:06:54.163Z,55.3
2017-11-28T03:07:10.352Z,55
2017-11-28T03:07:26.569Z,55
2017-11-28T03:07:53.689Z,55
2017-11-28T03:08:18.097Z,54.8
2017-11-28T03:08:34.253Z,55
2017-11-28T03:08:46.423Z,55.3
2017-11-28T03:09:03.349Z,54.7
2017-11-28T03:09:19.475Z,54.7
2017-11-28T03:09:35.600Z,55.1
2017-11-28T03:09:47.815Z,54.7
2017-11-28T03:10:04.712Z,55.1
2017-11-28T03:10:20.894Z,55.1
2017-11-28T03:10:53.035Z,55.1
2017-11-28T03:11:09.308Z,55.1
2017-11-28T03:11:25.283Z,54.7
2017-11-28T03:11:41.575Z,55
2017-11-28T03:11:57.662Z,55
2017-11-28T03:12:13.835Z,55
2017-11-28T03:12:29.901Z,54.7
2017-11-28T03:12:46.061Z,54.7
2017-11-28T03:13:02.290Z,54.5
2017-11-28T03:13:18.413Z,54.8
2017-11-28T03:13:34.549Z,54.8
2017-11-28T03:13:50.679Z,54.8
2017-11-28T03:14:06.826Z,54.3
2017-11-28T03:14:22.967Z,55.1
2017-11-28T03:14:39.162Z,54.9
2017-11-28T03:14:55.326Z,54.9
2017-11-28T03:15:36.063Z,54.7
2017-11-28T03:15:47.656Z,55.1
2017-11-28T03:16:00.645Z,55
2017-11-28T03:16:17.508Z,54.5
2017-11-28T03:16:29.741Z,55
2017-11-28T03:16:46.900Z,55.1
2017-11-28T03:17:02.924Z,55.1
2017-11-28T03:17:14.992Z,54.7
2017-11-28T03:17:55.908Z,54.9
2017-11-28T03:18:08.578Z,54.5
2017-11-28T03:18:25.072Z,54.7
2017-11-28T03:18:37.236Z,54.4
2017-11-28T03:18:50.133Z,54.4
2017-11-28T03:19:03.071Z,54.7
2017-11-28T03:19:20.037Z,54.7
2017-11-28T03:20:01.674Z,54.7
2017-11-28T03:20:17.907Z,54.7
2017-11-28T03:20:33.995Z,54.8
2017-11-28T03:20:50.208Z,54.4
2017-11-28T03:21:02.392Z,55.3
2017-11-28T03:21:15.328Z,55.4
2017-11-28T03:21:28.354Z,55.5
2017-11-28T03:21:45.248Z,55.8
2017-11-28T03:21:59.386Z,55.3
2017-11-28T03:22:11.976Z,55.7
2017-11-28T03:22:24.836Z,56.1
2017-11-28T03:22:36.212Z,55.8
2017-11-28T03:22:51.572Z,56.2
2017-11-28T03:23:03.803Z,56.4
2017-11-28T03:23:16.707Z,56.4
2017-11-28T03:23:40.234Z,57.1
2017-11-28T03:23:58.733Z,56.8
2017-11-28T03:24:11.595Z,56.9
2017-11-28T03:24:28.542Z,56.1
2017-11-28T03:24:40.613Z,56.4
2017-11-28T03:24:55.998Z,56.3
2017-11-28T03:25:12.127Z,55.8
2017-11-28T03:25:24.331Z,55.7
2017-11-28T03:25:41.260Z,55.6
2017-11-28T03:25:57.409Z,56.1
2017-11-28T03:26:09.562Z,56.1
2017-11-28T03:26:20.923Z,55.6
2017-11-28T03:26:48.855Z,55.8
2017-11-28T03:27:01.267Z,55.6
2017-11-28T03:27:14.251Z,55.7
2017-11-28T03:27:33.590Z,55.4
2017-11-28T03:27:50.449Z,55.8
2017-11-28T03:28:06.597Z,55.5
2017-11-28T03:28:22.822Z,55.8
2017-11-28T03:28:38.955Z,55.8
2017-11-28T03:28:55.467Z,55.7
2017-11-28T03:29:07.323Z,55.6
2017-11-28T03:29:21.239Z,55.8
2017-11-28T03:29:37.174Z,55.6
2017-11-28T03:29:53.354Z,55.8
2017-11-28T03:30:09.532Z,55.5
2017-11-28T03:30:21.635Z,55.7
2017-11-28T03:30:32.954Z,55.3
2017-11-28T03:30:45.953Z,55.3
2017-11-28T03:30:58.913Z,55
2017-11-28T03:31:11.865Z,54.8
2017-11-28T03:31:24.780Z,55.2
2017-11-28T03:31:40.156Z,55.1
2017-11-28T03:31:56.363Z,55.3
2017-11-28T03:32:08.464Z,55.3
2017-11-28T03:32:19.776Z,54.9
2017-11-28T03:32:35.162Z,55
2017-11-28T03:32:59.852Z,55.3
2017-11-28T03:33:15.525Z,55.1
2017-11-28T03:33:27.674Z,54.8
2017-11-28T03:33:40.544Z,55.1
2017-11-28T03:33:51.961Z,55.4
2017-11-28T03:34:04.866Z,55.2
2017-11-28T03:34:17.858Z,55.1
2017-11-28T03:34:55.004Z,54.7
2017-11-28T03:35:09.264Z,54.8
2017-11-28T03:35:40.408Z,54.6
2017-11-28T03:35:53.038Z,55.1
2017-11-28T03:36:10.074Z,55.3
2017-11-28T03:36:22.115Z,54.8
2017-11-28T03:36:35.092Z,55.1
2017-11-28T03:36:48.051Z,55.2
2017-11-28T03:37:01.000Z,54.7
2017-11-28T03:37:13.972Z,54.7
2017-11-28T03:37:26.982Z,55.1
2017-11-28T03:37:39.865Z,54.8
2017-11-28T03:38:12.596Z,55
2017-11-28T03:38:25.087Z,55
2017-11-28T03:38:38.050Z,55
2017-11-28T03:38:51.007Z,55.1
2017-11-28T03:39:07.978Z,54.5
2017-11-28T03:39:20.042Z,55.2
2017-11-28T03:39:31.420Z,54.5
2017-11-28T03:39:42.785Z,54.4
2017-11-28T03:39:54.161Z,54.4
2017-11-28T03:40:07.113Z,54.4
2017-11-28T03:40:20.007Z,54.8
2017-11-28T03:40:31.432Z,54.5
2017-11-28T03:40:44.343Z,55
2017-11-28T03:40:59.714Z,55.1
2017-11-28T03:41:15.893Z,55.1
2017-11-28T03:41:32.000Z,55
2017-11-28T03:41:44.219Z,55.2
2017-11-28T03:41:57.068Z,55.1
2017-11-28T03:42:10.073Z,54.8
2017-11-28T03:42:22.989Z,54.6
2017-11-28T03:42:39.988Z,54.5
2017-11-28T03:42:52.124Z,54.7
2017-11-28T03:43:34.849Z,54.6
2017-11-28T03:43:51.011Z,54.7
2017-11-28T03:44:07.183Z,54.6
2017-11-28T03:44:23.285Z,54.5
2017-11-28T03:44:39.442Z,54.8
2017-11-28T03:44:55.638Z,54.6
2017-11-28T03:45:11.775Z,54.5
2017-11-28T03:45:27.924Z,55
2017-11-28T03:45:44.030Z,55
2017-11-28T03:46:00.181Z,54.6
2017-11-28T03:46:16.357Z,54.9
2017-11-28T03:46:32.526Z,54.8
2017-11-28T03:46:48.676Z,54.7
2017-11-28T03:47:04.849Z,54.7
2017-11-28T03:47:21.009Z,54.8
2017-11-28T03:47:37.108Z,54.5